Time;durP1;ratioP1;P1;durP2;ratioP2;P2;SDS_P1;SDS_P2;PMS_P1;PMS_P2;Temp;Humidity;BMP_temperature;BMP_pressure;BME280_temperature;BME280_humidity;BME280_pressure;Samples;Min_cycle;Max_cycle;Signal;HPM_P1;HPM_P2
2022/06/13 00:01:23;;;;;;;3.67;1.67;;;;;;;;;;5010874;28;20207;-26
2022/06/13 00:03:52;;;;;;;4.78;1.75;;;;;;;;;;5005972;28;20226;-29
2022/06/13 00:06:19;;;;;;;1.92;1.73;;;;;;;;;;4999573;28;20219;-27
2022/06/13 00:08:46;;;;;;;3.22;1.63;;;;;;;;;;5012739;28;20213;-25
2022/06/13 00:11:14;;;;;;;3.75;1.58;;;;;;;;;;5011178;28;20213;-30
2022/06/13 00:13:45;;;;;;;1.60;1.50;;;;;;;;;;5004154;28;20215;-27
2022/06/13 00:16:14;;;;;;;2.45;1.50;;;;;;;;;;5009032;28;20220;-27
2022/06/13 00:18:42;;;;;;;2.63;1.70;;;;;;;;;;4998606;28;20290;-28
2022/06/13 00:21:10;;;;;;;2.00;1.20;;;;;;;;;;5011844;28;20206;-28
2022/06/13 00:23:38;;;;;;;2.78;1.42;;;;;;;;;;5013656;28;20207;-25
2022/06/13 00:26:05;;;;;;;2.88;1.58;;;;;;;;;;5000917;28;20227;-28
2022/06/13 00:28:32;;;;;;;6.85;1.50;;;;;;;;;;5001482;28;20196;-29
2022/06/13 00:30:59;;;;;;;1.85;1.60;;;;;;;;;;4993653;28;20214;-27
2022/06/13 00:33:26;;;;;;;3.78;1.58;;;;;;;;;;5003285;28;20217;-27
2022/06/13 00:35:54;;;;;;;1.50;1.40;;;;;;;;;;4998157;28;20267;-29
2022/06/13 00:38:22;;;;;;;2.92;1.70;;;;;;;;;;4992928;28;20212;-29
2022/06/13 00:40:49;;;;;;;2.72;1.35;;;;;;;;;;4994479;28;20208;-29
2022/06/13 00:43:18;;;;;;;2.70;1.70;;;;;;;;;;5003501;28;20210;-27
2022/06/13 00:45:45;;;;;;;2.15;1.50;;;;;;;;;;5411541;23;20300;-30
2022/06/13 00:48:13;;;;;;;2.33;1.63;;;;;;;;;;5002580;28;20664;-30
2022/06/13 00:50:46;;;;;;;4.00;1.92;;;;;;;;;;5002612;28;20203;-30
2022/06/13 00:53:17;;;;;;;3.05;1.67;;;;;;;;;;4992206;28;20203;-29
2022/06/13 00:55:47;;;;;;;1.88;1.45;;;;;;;;;;4992417;28;20215;-31
2022/06/13 00:58:15;;;;;;;1.65;1.55;;;;;;;;;;4994304;28;20216;-35
2022/06/13 01:00:43;;;;;;;2.65;1.55;;;;;;;;;;4998640;28;20207;-30
2022/06/13 01:03:11;;;;;;;3.10;1.43;;;;;;;;;;5009184;28;20218;-33
2022/06/13 01:05:41;;;;;;;2.53;1.50;;;;;;;;;;4995272;28;20234;-32
2022/06/13 01:08:09;;;;;;;3.50;1.77;;;;;;;;;;5011420;28;20574;-33
2022/06/13 01:13:29;;;;;;;3.60;1.70;;;;;;;;;;4978861;28;20211;-33
2022/06/13 01:16:04;;;;;;;2.65;1.95;;;;;;;;;;5011153;28;20219;-31
2022/06/13 01:18:49;;;;;;;1.90;1.63;;;;;;;;;;4999523;28;20658;-31
2022/06/13 01:21:19;;;;;;;1.80;1.48;;;;;;;;;;5000232;28;20204;-31
2022/06/13 01:24:13;;;;;;;2.90;1.60;;;;;;;;;;4992670;28;20199;-32
2022/06/13 01:26:47;;;;;;;2.33;1.70;;;;;;;;;;5006093;28;20227;-35
2022/06/13 01:29:29;;;;;;;1.43;1.33;;;;;;;;;;5000426;28;20200;-28
2022/06/13 01:32:00;;;;;;;4.38;1.75;;;;;;;;;;5000611;28;20208;-29
2022/06/13 01:34:32;;;;;;;3.20;1.33;;;;;;;;;;5009603;28;20495;-31
2022/06/13 01:37:04;;;;;;;3.53;1.40;;;;;;;;;;5004499;28;20225;-31
2022/06/13 01:39:35;;;;;;;2.90;1.53;;;;;;;;;;5012090;28;20207;-31
2022/06/13 01:42:12;;;;;;;1.97;1.50;;;;;;;;;;4991325;28;20224;-33
2022/06/13 01:44:46;;;;;;;1.90;1.60;;;;;;;;;;4997952;28;20203;-31
2022/06/13 01:47:18;;;;;;;2.55;1.75;;;;;;;;;;4990403;28;20222;-32
2022/06/13 01:49:50;;;;;;;4.07;1.60;;;;;;;;;;5008077;28;20238;-31
2022/06/13 01:52:21;;;;;;;1.87;1.63;;;;;;;;;;5011518;28;20203;-31
2022/06/13 01:54:51;;;;;;;3.63;2.00;;;;;;;;;;5010541;28;20649;-32
2022/06/13 01:57:21;;;;;;;3.45;1.55;;;;;;;;;;4997817;28;20298;-30
2022/06/13 01:59:54;;;;;;;5.07;1.80;;;;;;;;;;5000020;28;20257;-32
2022/06/13 02:02:28;;;;;;;2.05;1.52;;;;;;;;;;4994927;28;20211;-32
2022/06/13 02:04:59;;;;;;;2.80;1.47;;;;;;;;;;4990878;28;20680;-30
2022/06/13 02:07:29;;;;;;;5.43;1.77;;;;;;;;;;4991580;28;20223;-29
2022/06/13 02:10:01;;;;;;;2.33;1.43;;;;;;;;;;4992230;28;20203;-30
2022/06/13 02:12:29;;;;;;;1.90;1.60;;;;;;;;;;5006032;28;20218;-31
2022/06/13 02:14:58;;;;;;;3.33;1.73;;;;;;;;;;5003109;28;20492;-29
2022/06/13 02:17:29;;;;;;;1.90;1.80;;;;;;;;;;5006556;28;20218;-33
2022/06/13 02:19:58;;;;;;;3.57;1.67;;;;;;;;;;5005332;28;20207;-32
2022/06/13 02:22:28;;;;;;;1.97;1.80;;;;;;;;;;5008489;28;20218;-30
2022/06/13 02:24:58;;;;;;;1.83;1.60;;;;;;;;;;5006935;28;20208;-33
2022/06/13 02:27:26;;;;;;;2.17;1.90;;;;;;;;;;5000957;28;20231;-29
2022/06/13 02:29:57;;;;;;;2.92;1.88;;;;;;;;;;5010244;28;20203;-30
2022/06/13 02:32:28;;;;;;;1.93;1.73;;;;;;;;;;5001032;28;20204;-28
2022/06/13 02:34:56;;;;;;;1.67;1.53;;;;;;;;;;4998625;28;20208;-32
2022/06/13 02:37:26;;;;;;;2.25;1.45;;;;;;;;;;4992444;28;20227;-34
2022/06/13 02:39:56;;;;;;;3.13;1.77;;;;;;;;;;4992907;28;20200;-35
2022/06/13 02:42:25;;;;;;;4.33;1.70;;;;;;;;;;5003743;28;20204;-34
2022/06/13 02:44:55;;;;;;;1.63;1.53;;;;;;;;;;5012072;28;20210;-32
2022/06/13 02:47:26;;;;;;;1.83;1.73;;;;;;;;;;5002514;28;20238;-30
2022/06/13 02:49:57;;;;;;;1.67;1.53;;;;;;;;;;4990546;28;20218;-31
2022/06/13 02:52:28;;;;;;;2.50;1.70;;;;;;;;;;4990893;28;20211;-31
2022/06/13 02:54:56;;;;;;;1.57;1.47;;;;;;;;;;4991307;28;20207;-33
2022/06/13 02:57:35;;;;;;;2.53;1.83;;;;;;;;;;4999144;28;20224;-32
2022/06/13 03:00:13;;;;;;;2.23;1.60;;;;;;;;;;4997901;28;20207;-35
2022/06/13 03:02:45;;;;;;;2.30;1.80;;;;;;;;;;4994834;28;20210;-30
2022/06/13 03:05:18;;;;;;;2.27;1.90;;;;;;;;;;5000145;28;20670;-34
2022/06/13 03:07:53;;;;;;;1.77;1.50;;;;;;;;;;5008550;28;20223;-32
2022/06/13 03:10:22;;;;;;;1.67;1.40;;;;;;;;;;5009797;28;20656;-29
2022/06/13 03:12:56;;;;;;;3.40;1.80;;;;;;;;;;5001058;28;20218;-34
2022/06/13 03:15:26;;;;;;;1.50;1.43;;;;;;;;;;4990452;28;20203;-32
2022/06/13 03:17:56;;;;;;;2.13;1.93;;;;;;;;;;5006098;28;20224;-32
2022/06/13 03:20:28;;;;;;;2.23;1.60;;;;;;;;;;5006534;28;20200;-32
2022/06/13 03:22:57;;;;;;;2.00;1.90;;;;;;;;;;5001086;28;20199;-31
2022/06/13 03:25:27;;;;;;;2.53;1.50;;;;;;;;;;5013836;28;20207;-29
2022/06/13 03:27:56;;;;;;;3.13;2.20;;;;;;;;;;4999366;28;20210;-34
2022/06/13 03:30:25;;;;;;;3.10;1.77;;;;;;;;;;5000755;28;20211;-28
2022/06/13 03:35:36;;;;;;;1.83;1.73;;;;;;;;;;5003453;28;20310;-34
2022/06/13 03:38:04;;;;;;;5.60;1.97;;;;;;;;;;5015510;28;20207;-31
2022/06/13 03:40:32;;;;;;;2.10;1.90;;;;;;;;;;5006516;28;20211;-30
2022/06/13 03:43:03;;;;;;;1.80;1.67;;;;;;;;;;5002126;28;20395;-28
2022/06/13 03:45:33;;;;;;;2.60;2.30;;;;;;;;;;4995551;28;20219;-29
2022/06/13 03:48:04;;;;;;;2.03;1.83;;;;;;;;;;4997848;28;20208;-34
2022/06/13 03:50:35;;;;;;;4.60;2.17;;;;;;;;;;5004761;28;20207;-33
2022/06/13 03:53:07;;;;;;;2.33;2.10;;;;;;;;;;5009289;28;20214;-30
2022/06/13 03:55:37;;;;;;;2.20;2.00;;;;;;;;;;5002775;28;20202;-30
2022/06/13 03:58:07;;;;;;;2.47;2.27;;;;;;;;;;4996157;28;20207;-32
2022/06/13 04:00:39;;;;;;;4.50;2.00;;;;;;;;;;5005452;28;20198;-32
2022/06/13 04:03:06;;;;;;;3.97;2.43;;;;;;;;;;4999820;28;20211;-31
2022/06/13 04:05:36;;;;;;;3.47;2.27;;;;;;;;;;5010861;28;20200;-32
2022/06/13 04:08:09;;;;;;;2.93;2.30;;;;;;;;;;5015157;28;20246;-32
2022/06/13 04:10:42;;;;;;;4.27;2.10;;;;;;;;;;5006250;28;20208;-33
2022/06/13 04:13:18;;;;;;;4.60;2.33;;;;;;;;;;5003447;28;20200;-33
2022/06/13 04:16:03;;;;;;;2.83;2.23;;;;;;;;;;5013178;28;20203;-31
2022/06/13 04:18:38;;;;;;;3.23;2.27;;;;;;;;;;5005931;28;20208;-29
2022/06/13 04:21:12;;;;;;;2.97;2.20;;;;;;;;;;5004273;28;20198;-30
2022/06/13 04:23:45;;;;;;;4.13;2.30;;;;;;;;;;5015123;28;20205;-31
2022/06/13 04:26:14;;;;;;;2.53;2.13;;;;;;;;;;4999315;28;20236;-30
2022/06/13 04:28:43;;;;;;;2.87;2.20;;;;;;;;;;4996293;28;20562;-28
2022/06/13 04:31:11;;;;;;;3.63;2.13;;;;;;;;;;5013511;28;20214;-32
2022/06/13 04:33:40;;;;;;;2.50;2.30;;;;;;;;;;4996667;28;20204;-27
2022/06/13 04:36:10;;;;;;;3.53;2.20;;;;;;;;;;5003889;28;20227;-33
2022/06/13 04:38:37;;;;;;;4.07;2.07;;;;;;;;;;5014543;28;20218;-30
2022/06/13 04:41:06;;;;;;;6.83;1.93;;;;;;;;;;5007971;28;20206;-32
2022/06/13 04:43:35;;;;;;;4.77;2.03;;;;;;;;;;4994448;28;20223;-31
2022/06/13 04:46:05;;;;;;;2.83;2.10;;;;;;;;;;5002860;28;20231;-30
2022/06/13 04:48:33;;;;;;;4.10;1.90;;;;;;;;;;4994512;28;20210;-30
2022/06/13 04:51:02;;;;;;;1.87;1.40;;;;;;;;;;5002413;28;20206;-29
2022/06/13 04:53:33;;;;;;;3.30;2.00;;;;;;;;;;5014145;28;20211;-29
2022/06/13 04:56:00;;;;;;;4.20;1.65;;;;;;;;;;4999910;28;20225;-30
2022/06/13 04:58:30;;;;;;;4.40;2.13;;;;;;;;;;4994691;28;20569;-29
2022/06/13 05:01:00;;;;;;;4.87;1.93;;;;;;;;;;4995140;28;20648;-30
2022/06/13 05:03:28;;;;;;;2.80;1.77;;;;;;;;;;5002571;28;20237;-31
2022/06/13 05:05:57;;;;;;;4.10;1.70;;;;;;;;;;5008969;28;20238;-30
2022/06/13 05:08:25;;;;;;;4.40;1.50;;;;;;;;;;4998744;28;20203;-30
2022/06/13 05:10:54;;;;;;;7.30;1.77;;;;;;;;;;4993725;28;20227;-33
2022/06/13 05:13:22;;;;;;;6.75;1.77;;;;;;;;;;5004883;28;20203;-32
2022/06/13 05:16:06;;;;;;;3.00;1.92;;;;;;;;;;5010192;28;20319;-32
2022/06/13 05:18:51;;;;;;;5.28;1.75;;;;;;;;;;5001997;28;20208;-29
2022/06/13 05:21:29;;;;;;;2.90;1.50;;;;;;;;;;5000237;28;20196;-31
2022/06/13 05:24:06;;;;;;;5.82;1.98;;;;;;;;;;5013906;28;20193;-30
2022/06/13 05:26:33;;;;;;;3.65;1.50;;;;;;;;;;5008722;28;20228;-32
2022/06/13 05:29:00;;;;;;;6.43;1.80;;;;;;;;;;5009414;28;20812;-31
2022/06/13 05:31:29;;;;;;;3.17;1.65;;;;;;;;;;4999022;28;20197;-31
2022/06/13 05:33:58;;;;;;;4.15;1.95;;;;;;;;;;5000801;28;20207;-31
2022/06/13 05:36:28;;;;;;;3.78;1.80;;;;;;;;;;4992106;28;20223;-31
2022/06/13 05:38:57;;;;;;;4.38;2.13;;;;;;;;;;4992283;28;20240;-29
2022/06/13 05:41:24;;;;;;;2.22;1.55;;;;;;;;;;5001047;28;20213;-31
2022/06/13 05:43:51;;;;;;;5.18;2.40;;;;;;;;;;5000798;28;20241;-30
2022/06/13 05:46:19;;;;;;;3.33;1.60;;;;;;;;;;5006572;28;20241;-30
2022/06/13 05:48:46;;;;;;;7.85;2.17;;;;;;;;;;5001844;28;20214;-33
2022/06/13 05:51:13;;;;;;;4.80;1.70;;;;;;;;;;5010126;28;20201;-31
2022/06/13 05:53:42;;;;;;;4.38;1.85;;;;;;;;;;5002305;28;20209;-33
2022/06/13 05:56:11;;;;;;;2.65;1.60;;;;;;;;;;4993063;28;20236;-32
2022/06/13 05:58:39;;;;;;;8.15;1.70;;;;;;;;;;5002132;28;20208;-28
2022/06/13 06:01:06;;;;;;;5.30;1.80;;;;;;;;;;5013577;28;20237;-32
2022/06/13 06:03:34;;;;;;;2.70;1.45;;;;;;;;;;5002789;28;20223;-29
2022/06/13 06:06:02;;;;;;;3.70;1.80;;;;;;;;;;5012964;28;20222;-33
2022/06/13 06:08:30;;;;;;;3.47;1.73;;;;;;;;;;5013151;28;20230;-30
2022/06/13 06:10:59;;;;;;;5.00;1.80;;;;;;;;;;5010512;28;20214;-32
2022/06/13 06:13:27;;;;;;;7.43;2.20;;;;;;;;;;4996168;28;20211;-33
2022/06/13 06:15:55;;;;;;;5.80;2.00;;;;;;;;;;5001144;28;20732;-29
2022/06/13 06:18:23;;;;;;;3.63;1.77;;;;;;;;;;4993381;28;20642;-28
2022/06/13 06:20:50;;;;;;;3.55;1.90;;;;;;;;;;5003708;28;20203;-34
2022/06/13 06:23:17;;;;;;;2.92;1.52;;;;;;;;;;4993764;28;20214;-31
2022/06/13 06:25:47;;;;;;;6.82;2.00;;;;;;;;;;4991874;28;20218;-31
2022/06/13 06:28:17;;;;;;;6.10;2.03;;;;;;;;;;5011031;28;20661;-31
2022/06/13 06:30:44;;;;;;;4.05;1.90;;;;;;;;;;5010456;28;20218;-32
2022/06/13 06:33:11;;;;;;;5.75;1.60;;;;;;;;;;5000850;28;20195;-33
2022/06/13 06:35:39;;;;;;;5.95;1.80;;;;;;;;;;5002505;28;20199;-33
2022/06/13 06:38:07;;;;;;;4.32;1.77;;;;;;;;;;4993104;28;20259;-32
2022/06/13 06:40:34;;;;;;;6.13;1.85;;;;;;;;;;4996206;28;20259;-33
2022/06/13 06:43:01;;;;;;;4.25;1.88;;;;;;;;;;4992859;28;20209;-30
2022/06/13 06:50:37;;;;;;;7.80;1.85;;;;;;;;;;5009132;28;20222;-27
2022/06/13 06:53:04;;;;;;;9.15;1.80;;;;;;;;;;4993271;28;20263;-28
2022/06/13 07:01:13;;;;;;;3.13;1.48;;;;;;;;;;4983622;28;20207;-29
2022/06/13 07:03:40;;;;;;;5.25;1.90;;;;;;;;;;5007508;28;20247;-28
2022/06/13 07:06:09;;;;;;;8.15;2.00;;;;;;;;;;5008307;28;20290;-29
2022/06/13 07:08:37;;;;;;;3.67;1.80;;;;;;;;;;4993224;28;20220;-29
2022/06/13 07:13:52;;;;;;;4.47;1.80;;;;;;;;;;4996910;28;20194;-30
2022/06/13 07:16:19;;;;;;;5.32;1.77;;;;;;;;;;4992552;28;20319;-26
2022/06/13 07:18:46;;;;;;;3.08;1.48;;;;;;;;;;4994741;28;20200;-25
2022/06/13 07:21:16;;;;;;;3.97;2.22;;;;;;;;;;5006942;28;20287;-24
2022/06/13 07:23:43;;;;;;;4.78;1.90;;;;;;;;;;5007454;28;20280;-29
2022/06/13 07:26:17;;;;;;;6.97;2.58;;;;;;;;;;5001078;28;20248;-23
2022/06/13 07:28:44;;;;;;;5.18;2.17;;;;;;;;;;5001537;28;20303;-26
2022/06/13 07:31:16;;;;;;;7.72;1.80;;;;;;;;;;4996914;28;20200;-27
2022/06/13 07:33:43;;;;;;;5.90;2.33;;;;;;;;;;5006481;28;20209;-28
2022/06/13 07:36:11;;;;;;;5.43;1.80;;;;;;;;;;5000856;28;20219;-30
2022/06/13 07:38:39;;;;;;;3.33;1.98;;;;;;;;;;5005020;28;20215;-27
2022/06/13 07:41:07;;;;;;;3.83;1.90;;;;;;;;;;5012268;28;20218;-34
2022/06/13 07:43:37;;;;;;;5.63;2.63;;;;;;;;;;4991508;28;20288;-29
2022/06/13 07:46:05;;;;;;;6.53;2.10;;;;;;;;;;4993071;28;20223;-29
2022/06/13 07:48:33;;;;;;;5.45;1.77;;;;;;;;;;4989582;28;20348;-29
2022/06/13 07:51:01;;;;;;;4.30;2.17;;;;;;;;;;4991816;28;20238;-27
2022/06/13 07:53:28;;;;;;;2.22;1.70;;;;;;;;;;4991654;28;20204;-27
2022/06/13 07:55:57;;;;;;;6.82;1.92;;;;;;;;;;4994157;28;20302;-29
2022/06/13 07:58:29;;;;;;;3.92;1.95;;;;;;;;;;5001543;28;20215;-28
2022/06/13 08:00:56;;;;;;;3.20;1.38;;;;;;;;;;5003186;28;20199;-27
2022/06/13 08:03:25;;;;;;;8.50;2.20;;;;;;;;;;5003231;28;20291;-28
2022/06/13 08:05:52;;;;;;;7.85;2.20;;;;;;;;;;5002417;28;20219;-30
2022/06/13 08:08:24;;;;;;;3.17;1.70;;;;;;;;;;5002170;28;20220;-27
2022/06/13 08:10:54;;;;;;;6.55;2.10;;;;;;;;;;5007170;28;20362;-30
2022/06/13 08:13:24;;;;;;;3.90;1.98;;;;;;;;;;5005142;28;20203;-29
2022/06/13 08:15:53;;;;;;;7.38;2.15;;;;;;;;;;5002269;28;20277;-30
2022/06/13 08:18:21;;;;;;;7.10;2.25;;;;;;;;;;5004220;28;20200;-29
2022/06/13 08:20:51;;;;;;;4.57;1.85;;;;;;;;;;5006632;28;20203;-29
2022/06/13 08:23:19;;;;;;;5.78;1.90;;;;;;;;;;5015598;28;20211;-28
2022/06/13 08:25:47;;;;;;;5.47;1.88;;;;;;;;;;5008998;28;20265;-27
2022/06/13 08:28:14;;;;;;;4.22;2.05;;;;;;;;;;5009308;28;20277;-26
2022/06/13 08:30:45;;;;;;;4.47;1.95;;;;;;;;;;5001820;28;20196;-30
2022/06/13 08:33:12;;;;;;;8.70;2.40;;;;;;;;;;4998366;28;20203;-29
2022/06/13 08:35:40;;;;;;;2.85;1.63;;;;;;;;;;5005464;28;20234;-27
2022/06/13 08:38:07;;;;;;;8.23;2.05;;;;;;;;;;5005873;28;20196;-29
2022/06/13 08:40:36;;;;;;;4.40;2.00;;;;;;;;;;5003685;28;20262;-29
2022/06/13 08:43:06;;;;;;;5.78;2.13;;;;;;;;;;5007839;28;20207;-28
2022/06/13 08:45:39;;;;;;;8.70;2.08;;;;;;;;;;5010119;28;20202;-28
2022/06/13 08:48:09;;;;;;;3.05;1.63;;;;;;;;;;5007431;28;20219;-28
2022/06/13 08:50:40;;;;;;;4.40;1.77;;;;;;;;;;5000839;28;20203;-29
2022/06/13 08:53:11;;;;;;;4.05;1.50;;;;;;;;;;5014578;28;20214;-27
2022/06/13 08:55:41;;;;;;;6.63;2.25;;;;;;;;;;5001028;28;20216;-27
2022/06/13 08:58:12;;;;;;;2.85;1.70;;;;;;;;;;5007649;28;20218;-27
2022/06/13 09:00:40;;;;;;;4.82;1.73;;;;;;;;;;5012669;28;20195;-28
2022/06/13 09:03:11;;;;;;;8.30;2.38;;;;;;;;;;5002801;28;20383;-27
2022/06/13 09:05:43;;;;;;;4.57;1.67;;;;;;;;;;4996815;28;20278;-29
2022/06/13 09:08:13;;;;;;;6.65;1.80;;;;;;;;;;4994923;28;20311;-26
2022/06/13 09:10:43;;;;;;;4.07;1.45;;;;;;;;;;5007922;28;20214;-25
2022/06/13 09:13:12;;;;;;;3.75;2.20;;;;;;;;;;5003815;28;20206;-29
2022/06/13 09:15:42;;;;;;;2.67;1.88;;;;;;;;;;4997821;28;20206;-29
2022/06/13 09:18:16;;;;;;;5.97;1.90;;;;;;;;;;5004471;28;20206;-26
2022/06/13 09:20:49;;;;;;;6.93;2.15;;;;;;;;;;4999991;28;20210;-27
2022/06/13 09:23:19;;;;;;;5.47;1.73;;;;;;;;;;5013854;28;20210;-28
2022/06/13 09:25:48;;;;;;;4.25;2.38;;;;;;;;;;5006920;28;20210;-28
2022/06/13 09:28:19;;;;;;;4.97;1.63;;;;;;;;;;5002745;28;20225;-28
2022/06/13 09:30:49;;;;;;;7.25;2.45;;;;;;;;;;5000384;28;20256;-26
2022/06/13 09:33:21;;;;;;;3.47;1.90;;;;;;;;;;4993809;28;20242;-28
2022/06/13 09:36:11;;;;;;;2.90;1.73;;;;;;;;;;4998013;28;20229;-26
2022/06/13 09:38:45;;;;;;;6.78;2.13;;;;;;;;;;4999940;28;20205;-24
2022/06/13 09:41:29;;;;;;;2.80;1.73;;;;;;;;;;4996191;28;20206;-28
2022/06/13 09:44:02;;;;;;;5.28;1.73;;;;;;;;;;5005975;28;20200;-26
2022/06/13 09:46:31;;;;;;;6.50;2.25;;;;;;;;;;5026430;28;20256;-27
2022/06/13 09:49:06;;;;;;;5.25;2.10;;;;;;;;;;5006952;28;20317;-29
2022/06/13 09:51:39;;;;;;;5.85;2.22;;;;;;;;;;5005732;28;20197;-25
2022/06/13 09:54:10;;;;;;;3.95;1.90;;;;;;;;;;5013986;28;20190;-27
2022/06/13 09:56:40;;;;;;;7.72;1.88;;;;;;;;;;5003415;28;20233;-29
2022/06/13 09:59:13;;;;;;;3.17;1.65;;;;;;;;;;5000302;28;20213;-30
2022/06/13 10:01:44;;;;;;;3.58;1.73;;;;;;;;;;4997490;28;20234;-29
2022/06/13 10:04:16;;;;;;;3.33;1.48;;;;;;;;;;5008805;28;20260;-27
2022/06/13 10:06:47;;;;;;;5.78;1.83;;;;;;;;;;5013094;28;20214;-29
2022/06/13 10:09:20;;;;;;;3.97;1.92;;;;;;;;;;5008339;28;20221;-27
2022/06/13 10:11:52;;;;;;;3.67;1.52;;;;;;;;;;4993151;28;20218;-26
2022/06/13 10:14:37;;;;;;;3.03;1.20;;;;;;;;;;5009592;28;20191;-27
2022/06/13 10:17:12;;;;;;;1.98;1.40;;;;;;;;;;5005485;28;20245;-27
2022/06/13 10:19:46;;;;;;;5.05;1.73;;;;;;;;;;4996582;28;20197;-25
2022/06/13 10:22:14;;;;;;;3.22;1.48;;;;;;;;;;5006229;28;20210;-26
2022/06/13 10:24:47;;;;;;;5.90;1.75;;;;;;;;;;5019704;28;20206;-25
2022/06/13 10:27:21;;;;;;;3.08;1.50;;;;;;;;;;5007972;28;20228;-28
2022/06/13 10:29:55;;;;;;;2.42;1.73;;;;;;;;;;4996493;28;20229;-25
2022/06/13 10:32:30;;;;;;;2.20;1.20;;;;;;;;;;4996396;28;20210;-28
2022/06/13 10:35:04;;;;;;;2.10;1.23;;;;;;;;;;5006135;28;20207;-28
2022/06/13 10:37:35;;;;;;;2.05;1.10;;;;;;;;;;5018237;28;20231;-24
2022/06/13 10:40:05;;;;;;;4.32;1.30;;;;;;;;;;5013652;28;20199;-28
2022/06/13 10:42:33;;;;;;;2.40;1.40;;;;;;;;;;4998888;28;20205;-24
2022/06/13 10:45:00;;;;;;;4.32;1.55;;;;;;;;;;5011958;28;20205;-24
2022/06/13 10:47:30;;;;;;;3.50;1.42;;;;;;;;;;5001156;28;20231;-28
2022/06/13 10:49:59;;;;;;;2.30;1.42;;;;;;;;;;4995679;28;20239;-30
2022/06/13 10:52:31;;;;;;;4.75;1.48;;;;;;;;;;4995189;28;20205;-28
2022/06/13 10:55:03;;;;;;;2.63;1.40;;;;;;;;;;4991433;28;20213;-28
2022/06/13 10:57:32;;;;;;;2.85;1.45;;;;;;;;;;4999695;28;20232;-26
2022/06/13 11:00:10;;;;;;;2.92;1.52;;;;;;;;;;5000451;28;20293;-27
2022/06/13 11:02:39;;;;;;;2.95;1.50;;;;;;;;;;5004371;28;20203;-28
2022/06/13 11:05:09;;;;;;;3.50;1.40;;;;;;;;;;5008712;28;20210;-27
2022/06/13 11:07:43;;;;;;;2.70;1.45;;;;;;;;;;5017805;28;20311;-27
2022/06/13 11:10:18;;;;;;;6.68;1.70;;;;;;;;;;5011640;28;20232;-30
2022/06/13 11:12:50;;;;;;;2.00;1.27;;;;;;;;;;5002354;28;20209;-28
2022/06/13 11:23:40;;;;;;;3.17;1.33;;;;;;;;;;4993137;28;20207;-26
2022/06/13 11:27:39;;;;;;;3.88;1.33;;;;;;;;;;4996915;28;20362;-26
2022/06/13 11:28:58;;;;;;;1.55;1.23;;;;;;;;;;5004736;28;20226;-26
2022/06/13 11:31:26;;;;;;;5.05;1.50;;;;;;;;;;5008771;28;20400;-28
2022/06/13 11:33:54;;;;;;;1.77;1.33;;;;;;;;;;5003548;28;20196;-26
2022/06/13 11:36:25;;;;;;;2.42;1.50;;;;;;;;;;5012650;28;20496;-28
2022/06/13 11:38:59;;;;;;;3.70;1.23;;;;;;;;;;5015551;28;20277;-27
2022/06/13 11:41:30;;;;;;;2.15;1.63;;;;;;;;;;5010245;28;20211;-27
2022/06/13 11:44:00;;;;;;;3.20;1.30;;;;;;;;;;5008698;28;20201;-28
2022/06/13 11:46:39;;;;;;;7.43;1.98;;;;;;;;;;5012832;28;20310;-24
2022/06/13 11:49:08;;;;;;;3.45;1.40;;;;;;;;;;5007406;28;20232;-27
2022/06/13 11:51:39;;;;;;;2.67;1.38;;;;;;;;;;5014302;28;20199;-28
2022/06/13 11:54:18;;;;;;;2.97;1.60;;;;;;;;;;5016467;28;20197;-29
2022/06/13 11:56:46;;;;;;;3.03;1.52;;;;;;;;;;5000997;28;20231;-29
2022/06/13 11:59:15;;;;;;;2.75;1.50;;;;;;;;;;4998569;28;20196;-28
2022/06/13 12:01:42;;;;;;;3.08;1.73;;;;;;;;;;5007382;28;20209;-25
2022/06/13 12:04:16;;;;;;;4.15;1.45;;;;;;;;;;4998087;28;20218;-29
2022/06/13 12:06:46;;;;;;;4.85;1.40;;;;;;;;;;4998314;28;20236;-26
2022/06/13 12:09:16;;;;;;;2.85;1.30;;;;;;;;;;5012495;28;20508;-27
2022/06/13 12:11:45;;;;;;;2.50;1.23;;;;;;;;;;5005864;28;20223;-28
2022/06/13 12:14:13;;;;;;;3.63;1.60;;;;;;;;;;4996985;28;20213;-29
2022/06/13 12:16:43;;;;;;;1.73;1.17;;;;;;;;;;5002554;28;20235;-27
2022/06/13 12:24:10;;;;;;;3.22;1.27;;;;;;;;;;5003021;28;20303;-36
2022/06/13 12:26:42;;;;;;;3.45;1.30;;;;;;;;;;5002213;28;20236;-35
2022/06/13 12:29:14;;;;;;;2.60;1.50;;;;;;;;;;5003041;28;20250;-34
2022/06/13 12:31:44;;;;;;;4.32;1.40;;;;;;;;;;4996229;28;20217;-32
2022/06/13 12:34:17;;;;;;;3.72;1.50;;;;;;;;;;5006003;28;20207;-33
2022/06/13 12:36:53;;;;;;;4.97;1.50;;;;;;;;;;4999629;28;20232;-34
2022/06/13 12:39:32;;;;;;;4.38;1.63;;;;;;;;;;4993686;28;20209;-31
2022/06/13 12:42:03;;;;;;;2.55;1.58;;;;;;;;;;4994691;28;20201;-28
2022/06/13 12:44:48;;;;;;;3.83;1.50;;;;;;;;;;4995603;28;20270;-39
2022/06/13 12:49:56;;;;;;;3.15;1.48;;;;;;;;;;4993731;28;20281;-45
2022/06/13 12:52:30;;;;;;;3.67;1.48;;;;;;;;;;4992572;28;20248;-44
2022/06/13 12:55:00;;;;;;;4.18;1.30;;;;;;;;;;4994130;28;20201;-46
2022/06/13 12:57:48;;;;;;;3.65;1.60;;;;;;;;;;5003754;28;20289;-43
2022/06/13 13:00:19;;;;;;;2.58;1.50;;;;;;;;;;4998630;28;20196;-43
2022/06/13 13:03:05;;;;;;;3.17;1.15;;;;;;;;;;4992203;28;20410;-46
2022/06/13 13:05:38;;;;;;;2.17;1.30;;;;;;;;;;4991655;28;20201;-45
2022/06/13 13:08:11;;;;;;;4.75;1.52;;;;;;;;;;5001029;28;20208;-43
2022/06/13 13:10:41;;;;;;;3.33;1.17;;;;;;;;;;5003825;28;20278;-40
2022/06/13 13:13:26;;;;;;;2.83;1.55;;;;;;;;;;5000341;28;20207;-43
2022/06/13 13:15:58;;;;;;;3.95;1.88;;;;;;;;;;4996679;28;20258;-42
2022/06/13 13:18:33;;;;;;;2.75;1.27;;;;;;;;;;5001744;28;20200;-44
2022/06/13 13:21:02;;;;;;;2.33;1.50;;;;;;;;;;5015169;28;20401;-44
2022/06/13 13:23:33;;;;;;;5.05;1.58;;;;;;;;;;5000874;28;20200;-44
2022/06/13 13:26:05;;;;;;;1.95;1.38;;;;;;;;;;5006833;28;20230;-43
2022/06/13 13:28:35;;;;;;;2.60;1.20;;;;;;;;;;5001649;28;20231;-44
2022/06/13 13:31:08;;;;;;;2.95;1.60;;;;;;;;;;4996438;28;20211;-43
2022/06/13 13:33:54;;;;;;;1.30;1.20;;;;;;;;;;4999533;28;20415;-43
2022/06/13 13:36:25;;;;;;;3.90;1.50;;;;;;;;;;5008263;28;20261;-43
2022/06/13 13:38:55;;;;;;;1.40;1.30;;;;;;;;;;5026645;28;20198;-44
2022/06/13 13:41:26;;;;;;;1.45;1.30;;;;;;;;;;5009609;28;20207;-41
2022/06/13 13:43:56;;;;;;;3.50;1.30;;;;;;;;;;5006393;28;20295;-44
2022/06/13 13:46:28;;;;;;;2.95;1.10;;;;;;;;;;5001171;28;20223;-42
2022/06/13 13:48:59;;;;;;;3.42;1.15;;;;;;;;;;5008145;28;20307;-43
2022/06/13 13:51:28;;;;;;;3.65;1.08;;;;;;;;;;5009977;28;20203;-45
2022/06/13 13:53:57;;;;;;;1.67;1.27;;;;;;;;;;4993831;28;20208;-43
2022/06/13 13:56:35;;;;;;;2.58;1.10;;;;;;;;;;4999700;28;20288;-41
2022/06/13 13:59:03;;;;;;;1.83;1.20;;;;;;;;;;5003372;28;20204;-45
2022/06/13 14:01:39;;;;;;;2.47;1.50;;;;;;;;;;5007332;28;20390;-43
2022/06/13 14:04:17;;;;;;;1.33;0.93;;;;;;;;;;4998187;28;20297;-46
2022/06/13 14:06:46;;;;;;;1.35;1.20;;;;;;;;;;5010375;28;20255;-42
2022/06/13 14:09:17;;;;;;;1.63;1.20;;;;;;;;;;5013635;28;20224;-47
2022/06/13 14:12:00;;;;;;;1.83;1.15;;;;;;;;;;5002475;28;20208;-44
2022/06/13 14:14:29;;;;;;;2.28;1.08;;;;;;;;;;4999543;28;20229;-46
2022/06/13 14:16:58;;;;;;;2.53;1.30;;;;;;;;;;4999780;28;20224;-40
2022/06/13 14:19:26;;;;;;;3.35;1.27;;;;;;;;;;5002114;28;20203;-46
2022/06/13 14:21:59;;;;;;;2.58;1.00;;;;;;;;;;5011059;28;20239;-45
2022/06/13 14:24:27;;;;;;;2.85;1.25;;;;;;;;;;5010892;28;20297;-41
2022/06/13 14:27:03;;;;;;;2.00;0.88;;;;;;;;;;5000713;28;20228;-46
2022/06/13 14:29:35;;;;;;;3.85;1.63;;;;;;;;;;5002854;28;20230;-43
2022/06/13 14:32:04;;;;;;;3.13;1.33;;;;;;;;;;4990308;28;20297;-40
2022/06/13 14:37:50;;;;;;;2.60;1.08;;;;;;;;;;4997652;28;20224;-43
2022/06/13 14:40:19;;;;;;;1.30;1.00;;;;;;;;;;5001125;28;20201;-44
2022/06/13 14:42:54;;;;;;;2.67;1.23;;;;;;;;;;4992443;28;20233;-46
2022/06/13 14:45:24;;;;;;;1.95;1.08;;;;;;;;;;4991317;28;20242;-44
2022/06/13 14:48:03;;;;;;;3.55;1.27;;;;;;;;;;4990246;28;20236;-44
2022/06/13 14:50:39;;;;;;;1.58;1.15;;;;;;;;;;5008653;28;20251;-41
2022/06/13 14:53:24;;;;;;;4.93;1.67;;;;;;;;;;5010814;28;20212;-44
2022/06/13 14:56:06;;;;;;;2.42;1.10;;;;;;;;;;5004240;28;20236;-39
2022/06/13 14:58:48;;;;;;;2.13;1.10;;;;;;;;;;4997394;28;20297;-45
2022/06/13 15:01:20;;;;;;;2.67;1.08;;;;;;;;;;4992896;28;20206;-43
2022/06/13 15:04:02;;;;;;;2.70;1.15;;;;;;;;;;4992345;28;20233;-44
2022/06/13 15:06:34;;;;;;;1.65;1.20;;;;;;;;;;5001617;28;20232;-40
2022/06/13 15:09:08;;;;;;;3.72;1.30;;;;;;;;;;5002196;28;20209;-41
2022/06/13 15:11:38;;;;;;;2.53;1.15;;;;;;;;;;5004886;28;20287;-46
2022/06/13 15:14:05;;;;;;;2.67;1.33;;;;;;;;;;5013695;28;20220;-46
2022/06/13 15:16:33;;;;;;;3.20;1.08;;;;;;;;;;5008046;28;20231;-45
2022/06/13 15:19:03;;;;;;;3.20;1.30;;;;;;;;;;5000598;28;20316;-37
2022/06/13 15:21:32;;;;;;;1.15;1.15;;;;;;;;;;5002726;28;20204;-38
2022/06/13 15:24:00;;;;;;;1.48;1.08;;;;;;;;;;5008790;28;20208;-38
2022/06/13 15:26:29;;;;;;;6.50;1.27;;;;;;;;;;5002624;28;20315;-38
2022/06/13 15:29:17;;;;;;;1.23;1.00;;;;;;;;;;5008750;28;20200;-40
2022/06/13 15:31:45;;;;;;;1.88;1.05;;;;;;;;;;5014071;28;20294;-38
2022/06/13 15:34:13;;;;;;;2.83;1.30;;;;;;;;;;5005332;28;20200;-40
2022/06/13 15:36:43;;;;;;;5.20;1.38;;;;;;;;;;4997113;28;20239;-35
2022/06/13 15:39:11;;;;;;;3.42;1.27;;;;;;;;;;5014048;28;20195;-39
2022/06/13 15:41:40;;;;;;;1.85;1.20;;;;;;;;;;5000302;28;20325;-38
2022/06/13 15:44:08;;;;;;;4.38;1.75;;;;;;;;;;4998294;28;20205;-36